This demonstration page uses our WeatherBlox Daily Observations layout. Learn more.

41.55636, -103.73856

Hourly Observations for September 14, 2019

Temp ( °F °C ) Dew Point ( °F °C ) Humidity (%) Winds ( mph kmh ) Pressure ( in mb ) Visibility ( mi km ) Precip ( " mm )
12:58 am 00:58 Clear 50 10.2 43 6.3 77 77 W 10 17 30.06 1018 10 16.09344 0 0
1:58 am 01:58 Clear 51 10.8 42 5.4 70 70 WSW 10 17 30.03 1017 10 16.09344 0 0
2:58 am 02:58 Clear 49 9.5 42 5.4 76 76 WSW 8 13 30.03 1017 10 16.09344 0 0
3:58 am 03:58 Clear 47 8.6 41 5.2 79 79 W 12 19 30.03 1017 10 16.09344 0 0
4:58 am 04:58 Clear 48 8.7 41 4.8 77 77 W 10 17 30.03 1017 10 16.09344 0 0
5:58 am 05:58 Clear 51 10.5 39 4 64 64 W 9 15 30.03 1017 10 16.09344 0 0
6:58 am 06:58 Sunny 51 10.3 38 3.6 63 63 W 10 17 30.06 1018 10 16.09344 0 0
7:58 am 07:58 Sunny 56 13.2 43 6.2 63 63 W 7 11 30.06 1018 10 16.09344 0 0
8:58 am 08:58 Sunny 63 17.3 44 6.4 49 49 WSW 12 19 30.06 1018 10 16.09344 0 0
9:58 am 09:58 Sunny 72 22.2 39 4 31 31 WNW 16 26 30.03 1017 10 16.09344 0 0
10:58 am 10:58 Sunny 75 24 37 2.6 25 25 WNW 20 31 30.03 1017 10 16.09344 0 0
11:58 am 11:58 Sunny 77 25.2 39 4 25 25 NW 22 35 30.03 1017 10 16.09344 0 0
12:58 pm 12:58 Sunny 80 26.4 36 2 20 20 NW 18 30 30 1016 10 16.09344 0 0
1:58 pm 13:58 Sunny 81 27.3 37 2.5 20 20 NW 17 28 30 1016 10 16.09344 0 0
2:58 pm 14:58 Sunny 82 27.7 36 2 19 19 NW 18 30 29.97 1015 10 16.09344 0 0
3:58 pm 15:58 Sunny 83 28.1 37 2.7 19 19 NNW 16 26 29.97 1015 10 16.09344 0 0
4:58 pm 16:58 Sunny 81 27.4 40 4.4 23 23 NNW 8 13 29.97 1015 10 16.09344 0 0
5:58 pm 17:58 Sunny 78 25.3 42 5.6 28 28 NNE 7 11 29.97 1015 10 16.09344 0 0
6:58 pm 18:58 Sunny 69 20.5 45 7.4 43 43 E 7 11 30 1016 10 16.09344 0 0
7:58 pm 19:58 Clear 66 18.8 42 5.8 43 43 SE 9 15 30.03 1017 10 16.09344 0 0
8:58 pm 20:58 Clear 62 16.9 43 5.9 49 49 SSE 8 13 30.03 1017 10 16.09344 0 0
9:58 pm 21:58 Clear 58 14.6 44 6.7 59 59 S 9 15 30 1016 10 16.09344 0 0
10:58 pm 22:58 Clear 57 13.8 43 6.3 61 61 SSW 7 11 30 1016 10 16.09344 0 0
11:58 pm 23:58 Clear 57 13.8 43 6.1 60 60 WSW 7 11 30 1016 10 16.09344 0 0

Powered by AerisWeather